Loogootee, IN (47553)

06:02 PM EST on februarie 06, 2016 (GMT -0500)
Rusk Indiana on Raspberry pi | | Change Station
CLOSE
Current Station
Staţie meteo personală
Location: Shoals, IN
Elevation: 669 ft
Nearby Weather Stations

Elev 669 ft 38.55 °N, 86.74 °W | Updated 1 minute ago

Cer acoperit
Cer acoperit
43.4 °F
Feels Like 43 °F
N
0.0
Vânt variabil Vânt from nord
Gusts 0.0 mph

astăzi
High -- | Low -- °F
--% Chance of Precip.
Ieri
High -- | Low -- °F
Precip. -- inch
Presiunea 30.24 inch
Vizibilitatea 10.0 mile
Nori Cer senin
Vânt rece 43 °F
Punctul de rouă 28 °F
Umiditatea 55%
Precipitaţii 0.00 inch
Adâncimea zăpezii Not available.
7:49 AM 6:14 PM
Semilună în descreştere, 4% visible
METAR KDCY 062255Z AUTO 23004KT 10SM CLR 08/M02 A3024 RMK AO2 T00781020
Presiunea 30.24 inch
Vizibilitatea 10.0 mile
Nori Cer senin
Vânt rece 43 °F
Punctul de rouă 28 °F
Umiditatea 55%
Precipitaţii 0.00 inch
Adâncimea zăpezii Not available.
7:49 AM 6:14 PM
Semilună în descreştere, 4% visible
METAR KDCY 062255Z AUTO 23004KT 10SM CLR 08/M02 A3024 RMK AO2 T00781020

10-Day Weather Forecast

Almanac

Astronomie

Feb. 06, 2016 Răsărit Apus
Timpul Actual
Crepusculul Civil
Crepusculul nautic
Răsărit Astronomic
Luna
Durata zilei lumină
Lungimea zilei
Tomorrow will be .
, % of the Moon is Illuminated

Extremele de azi

State Highs State Lows

Community

WunderPhotos

Upload Photos

1,891,090 photos uploaded!

WunderBlog® & News

Nearby

Calitatea aerului

  Calitatea aerului Index de calitate a aerului Poluat
Not available.

Adâncimea zapezii

Station Depth Elevation

Earthquake Activity

Oraş Distance Mag. Time & Date
Minimum magnitude displayed is 2.5.

Coastal Water Temperatures

Locul Temperatura

Stations

Nearby Weather Stations

Locaţia staţiei Temp Vânt rece Punctul de rouă Umiditatea Vânt Precip. Elev Actualizare Type
                   

Watches & Warnings

There are currently no watches in effect.